Time;durP1;ratioP1;P1;durP2;ratioP2;P2;SDS_P1;SDS_P2;PMS_P1;PMS_P2;Temp;Humidity;BMP_temperature;BMP_pressure;BME280_temperature;BME280_humidity;BME280_pressure;Samples;Min_cycle;Max_cycle;Signal;HPM_P1;HPM_P2
2021/06/29 00:00:48;;;;;;;;;;;21.60;72.00;;;;;;4980887;28;1188;-72
2021/06/29 00:03:16;;;;;;;;;;;21.60;72.00;;;;;;5014076;28;1073;-72
2021/06/29 00:05:42;;;;;;;;;;;21.60;72.00;;;;;;5014850;28;1894;-72
2021/06/29 00:08:07;;;;;;;;;;;21.60;72.00;;;;;;5014036;28;1218;-72
2021/06/29 00:10:33;;;;;;;;;;;21.60;72.00;;;;;;5014651;28;1004;-72
2021/06/29 00:12:58;;;;;;;;;;;21.60;72.00;;;;;;5025353;28;1053;-72
2021/06/29 00:15:24;;;;;;;;;;;21.60;72.00;;;;;;5010087;28;1127;-72
2021/06/29 00:17:49;;;;;;;;;;;21.60;72.00;;;;;;5005953;28;1413;-72
2021/06/29 00:20:15;;;;;;;;;;;21.60;72.00;;;;;;5004429;28;1117;-72
2021/06/29 00:22:40;;;;;;;;;;;21.60;72.00;;;;;;5005704;28;1213;-72
2021/06/29 00:25:06;;;;;;;;;;;21.60;72.00;;;;;;5005988;28;1296;-73
2021/06/29 00:27:32;;;;;;;;;;;21.60;72.10;;;;;;4996406;28;1960;-72
2021/06/29 00:29:57;;;;;;;;;;;21.60;72.00;;;;;;5005153;28;1204;-72
2021/06/29 00:32:22;;;;;;;;;;;21.60;72.10;;;;;;5014603;28;1113;-72
2021/06/29 00:34:48;;;;;;;;;;;21.60;72.10;;;;;;5013456;28;1175;-73
2021/06/29 00:37:13;;;;;;;;;;;21.60;72.10;;;;;;5013876;28;1428;-72
2021/06/29 00:39:39;;;;;;;;;;;21.60;72.10;;;;;;4998748;28;1109;-72
2021/06/29 00:42:04;;;;;;;;;;;21.60;72.10;;;;;;5025817;28;1053;-72
2021/06/29 00:44:30;;;;;;;;;;;21.60;72.10;;;;;;5015563;28;1444;-72
2021/06/29 00:46:57;;;;;;;;;;;21.60;72.10;;;;;;5015431;28;1942;-72
2021/06/29 00:49:22;;;;;;;;;;;21.60;72.10;;;;;;5033899;28;1104;-72
2021/06/29 00:51:48;;;;;;;;;;;21.60;72.10;;;;;;5016130;28;1080;-72
2021/06/29 00:54:14;;;;;;;;;;;21.60;72.10;;;;;;4999039;28;1165;-72
2021/06/29 00:56:40;;;;;;;;;;;21.60;72.10;;;;;;5004348;28;1077;-72
2021/06/29 00:59:05;;;;;;;;;;;21.60;72.10;;;;;;4996263;28;1314;-72
2021/06/29 01:01:30;;;;;;;;;;;21.60;72.10;;;;;;4996514;28;1164;-72
2021/06/29 01:03:56;;;;;;;;;;;21.60;72.10;;;;;;4995318;28;1160;-72
2021/06/29 01:06:21;;;;;;;;;;;21.60;72.10;;;;;;5007745;28;1961;-72
2021/06/29 01:08:47;;;;;;;;;;;21.60;72.10;;;;;;5014966;28;1306;-72
2021/06/29 01:11:12;;;;;;;;;;;21.60;72.10;;;;;;4995971;28;1053;-72
2021/06/29 01:13:42;;;;;;;;;;;21.60;72.10;;;;;;5030112;28;1163;-72
2021/06/29 01:16:07;;;;;;;;;;;21.60;72.10;;;;;;5015963;28;1085;-72
2021/06/29 01:18:33;;;;;;;;;;;21.60;72.10;;;;;;5032845;28;1271;-72
2021/06/29 01:20:58;;;;;;;;;;;21.60;72.10;;;;;;5014817;28;1168;-72
2021/06/29 01:23:27;;;;;;;;;;;21.60;72.10;;;;;;5032269;28;1144;-72
2021/06/29 01:26:11;;;;;;;;;;;21.60;72.10;;;;;;5015336;28;1902;-72
2021/06/29 01:31:15;;;;;;;;;;;21.60;72.10;;;;;;5018590;28;1041;-72
2021/06/29 01:33:40;;;;;;;;;;;21.60;72.10;;;;;;5012312;28;1127;-72
2021/06/29 01:36:06;;;;;;;;;;;21.60;72.10;;;;;;5013266;28;1104;-72
2021/06/29 01:38:31;;;;;;;;;;;21.60;72.10;;;;;;4995340;28;1289;-72
2021/06/29 01:40:56;;;;;;;;;;;21.60;72.10;;;;;;5015811;28;1172;-72
2021/06/29 01:43:32;;;;;;;;;;;21.60;72.10;;;;;;5012204;28;1128;-72
2021/06/29 01:45:58;;;;;;;;;;;21.60;72.10;;;;;;4996721;28;1952;-72
2021/06/29 01:48:26;;;;;;;;;;;21.60;72.10;;;;;;4995206;28;1314;-72
2021/06/29 01:50:52;;;;;;;;;;;21.60;72.10;;;;;;5013019;28;1195;-72
2021/06/29 01:53:17;;;;;;;;;;;21.60;72.20;;;;;;5012709;28;1151;-72
2021/06/29 01:55:43;;;;;;;;;;;21.60;72.20;;;;;;4994687;28;1112;-72
2021/06/29 01:58:09;;;;;;;;;;;21.60;72.20;;;;;;4985386;28;1279;-72
2021/06/29 02:00:34;;;;;;;;;;;21.60;72.20;;;;;;5012959;28;1104;-72
2021/06/29 02:02:59;;;;;;;;;;;21.60;72.20;;;;;;5013085;28;1068;-72
2021/06/29 02:05:25;;;;;;;;;;;21.60;72.10;;;;;;5000347;28;1081;-72
2021/06/29 02:07:50;;;;;;;;;;;21.60;72.10;;;;;;5018574;28;1898;-70
2021/06/29 02:10:16;;;;;;;;;;;21.60;72.10;;;;;;5020168;28;1217;-72
2021/06/29 02:12:42;;;;;;;;;;;21.60;72.10;;;;;;5018527;28;1228;-73
2021/06/29 02:15:08;;;;;;;;;;;21.60;72.20;;;;;;4999097;28;1256;-74
2021/06/29 02:17:33;;;;;;;;;;;21.60;72.20;;;;;;5002584;28;1274;-72
2021/06/29 02:19:58;;;;;;;;;;;21.60;72.20;;;;;;5021590;28;1204;-73
2021/06/29 02:22:24;;;;;;;;;;;21.60;72.20;;;;;;5020895;28;1209;-73
2021/06/29 02:24:49;;;;;;;;;;;21.60;72.20;;;;;;5002523;28;1209;-72
2021/06/29 02:27:15;;;;;;;;;;;21.60;72.20;;;;;;5001600;28;1926;-71
2021/06/29 02:29:40;;;;;;;;;;;21.60;72.20;;;;;;5020320;28;1161;-76
2021/06/29 02:32:06;;;;;;;;;;;21.60;72.20;;;;;;5002208;28;1142;-76
2021/06/29 02:34:31;;;;;;;;;;;21.60;72.30;;;;;;5019761;28;1236;-73
2021/06/29 02:36:57;;;;;;;;;;;21.60;72.20;;;;;;5032121;28;1346;-73
2021/06/29 02:39:22;;;;;;;;;;;21.60;72.30;;;;;;5012148;28;1068;-74
2021/06/29 02:41:48;;;;;;;;;;;21.60;72.30;;;;;;5012254;28;1109;-72
2021/06/29 02:44:14;;;;;;;;;;;21.60;72.30;;;;;;5011798;28;1182;-73
2021/06/29 02:46:39;;;;;;;;;;;21.60;72.30;;;;;;5012321;28;1898;-74
2021/06/29 02:49:05;;;;;;;;;;;21.60;72.30;;;;;;4994097;28;1216;-74
2021/06/29 02:51:30;;;;;;;;;;;21.60;72.30;;;;;;4994684;28;1152;-73
2021/06/29 02:53:55;;;;;;;;;;;21.60;72.30;;;;;;4994274;28;1074;-73
2021/06/29 02:56:42;;;;;;;;;;;21.60;72.30;;;;;;4994729;28;1058;-73
2021/06/29 02:59:08;;;;;;;;;;;21.60;72.30;;;;;;5012436;28;1219;-73
2021/06/29 03:01:34;;;;;;;;;;;21.60;72.30;;;;;;4994166;28;1116;-73
2021/06/29 03:03:59;;;;;;;;;;;21.60;72.40;;;;;;5012219;28;1097;-73
2021/06/29 03:06:24;;;;;;;;;;;21.60;72.30;;;;;;5012307;28;1952;-73
2021/06/29 03:08:50;;;;;;;;;;;21.60;72.30;;;;;;5012067;28;1307;-73
2021/06/29 03:11:15;;;;;;;;;;;21.60;72.40;;;;;;5011460;28;1183;-73
2021/06/29 03:13:41;;;;;;;;;;;21.60;72.40;;;;;;5029579;28;1132;-73
2021/06/29 03:16:07;;;;;;;;;;;21.60;72.40;;;;;;5031908;28;1155;-73
2021/06/29 03:18:32;;;;;;;;;;;21.60;72.40;;;;;;5031643;28;1370;-74
2021/06/29 03:20:58;;;;;;;;;;;21.60;72.40;;;;;;5032171;28;998;-73
2021/06/29 03:23:23;;;;;;;;;;;21.60;72.30;;;;;;5030888;28;1264;-73
2021/06/29 03:25:49;;;;;;;;;;;21.60;72.30;;;;;;5013557;28;1902;-73
2021/06/29 03:28:16;;;;;;;;;;;21.60;72.30;;;;;;5013464;28;1280;-73
2021/06/29 03:30:42;;;;;;;;;;;21.60;72.40;;;;;;5003671;28;1286;-73
2021/06/29 03:33:07;;;;;;;;;;;21.60;72.40;;;;;;5010788;28;1096;-73
2021/06/29 03:35:32;;;;;;;;;;;21.60;72.40;;;;;;4994388;28;1097;-73
2021/06/29 03:37:58;;;;;;;;;;;21.60;72.40;;;;;;5011472;28;1265;-73
2021/06/29 03:40:23;;;;;;;;;;;21.60;72.40;;;;;;5014950;28;1125;-74
2021/06/29 03:42:49;;;;;;;;;;;21.60;72.40;;;;;;5011382;28;1037;-73
2021/06/29 03:45:14;;;;;;;;;;;21.60;72.40;;;;;;5014525;28;1108;-74
2021/06/29 03:47:40;;;;;;;;;;;21.60;72.40;;;;;;5015319;28;1906;-73
2021/06/29 03:50:05;;;;;;;;;;;21.60;72.40;;;;;;4997501;28;1081;-73
2021/06/29 03:52:31;;;;;;;;;;;21.60;72.40;;;;;;4997810;28;1054;-73
2021/06/29 03:54:56;;;;;;;;;;;21.60;72.40;;;;;;4996201;28;1440;-73
2021/06/29 03:57:21;;;;;;;;;;;21.60;72.40;;;;;;4997062;28;1369;-74
2021/06/29 03:59:47;;;;;;;;;;;21.60;72.40;;;;;;4996827;28;1108;-73
2021/06/29 04:02:12;;;;;;;;;;;21.60;72.40;;;;;;5014986;28;1108;-73
2021/06/29 04:04:38;;;;;;;;;;;21.60;72.40;;;;;;4996822;28;1061;-73
2021/06/29 04:07:06;;;;;;;;;;;21.60;72.40;;;;;;5015116;28;1910;-74
2021/06/29 04:09:32;;;;;;;;;;;21.60;72.40;;;;;;4996831;28;1227;-73
2021/06/29 04:11:57;;;;;;;;;;;21.60;72.40;;;;;;5000156;28;1073;-73
2021/06/29 04:14:23;;;;;;;;;;;21.60;72.40;;;;;;5033907;28;1060;-73
2021/06/29 04:16:48;;;;;;;;;;;21.60;72.40;;;;;;5025582;28;1775;-70
2021/06/29 04:19:14;;;;;;;;;;;21.60;72.40;;;;;;5029572;28;1331;-71
2021/06/29 04:21:39;;;;;;;;;;;21.60;73.20;;;;;;5022769;28;1144;-70
2021/06/29 04:24:05;;;;;;;;;;;21.60;72.40;;;;;;5024985;28;1069;-72
2021/06/29 04:26:31;;;;;;;;;;;21.60;72.40;;;;;;5016850;28;1963;-70
2021/06/29 04:28:56;;;;;;;;;;;21.60;72.40;;;;;;5019121;28;1290;-69
2021/06/29 04:31:22;;;;;;;;;;;21.60;72.40;;;;;;5017620;28;1057;-70
2021/06/29 04:33:47;;;;;;;;;;;21.60;72.40;;;;;;5012311;28;1111;-67
2021/06/29 04:36:13;;;;;;;;;;;21.60;72.40;;;;;;5013516;28;1112;-68
2021/06/29 04:38:38;;;;;;;;;;;21.60;72.40;;;;;;5013004;28;1278;-68
2021/06/29 04:41:04;;;;;;;;;;;21.60;72.50;;;;;;5016815;28;1113;-68
2021/06/29 04:43:30;;;;;;;;;;;21.60;72.40;;;;;;5013096;28;1076;-68
2021/06/29 04:45:55;;;;;;;;;;;21.60;72.40;;;;;;5013286;28;2365;-70
2021/06/29 04:48:21;;;;;;;;;;;21.60;72.80;;;;;;4995371;28;1298;-72
2021/06/29 04:50:46;;;;;;;;;;;21.60;72.40;;;;;;5013470;28;1033;-72
2021/06/29 04:53:11;;;;;;;;;;;21.60;72.40;;;;;;5012684;28;1167;-72
2021/06/29 04:55:37;;;;;;;;;;;21.60;72.40;;;;;;5011796;28;1100;-71
2021/06/29 04:58:02;;;;;;;;;;;21.60;72.50;;;;;;4995996;28;1197;-70
2021/06/29 05:00:28;;;;;;;;;;;21.60;72.40;;;;;;5014233;28;1160;-71
2021/06/29 05:02:53;;;;;;;;;;;21.60;72.40;;;;;;5012316;28;1144;-70
2021/06/29 05:05:20;;;;;;;;;;;21.60;72.60;;;;;;5013515;28;1041;-73
2021/06/29 05:07:47;;;;;;;;;;;21.60;72.60;;;;;;5013909;28;1906;-73
2021/06/29 05:10:12;;;;;;;;;;;21.60;72.50;;;;;;4995495;28;1117;-69
2021/06/29 05:12:38;;;;;;;;;;;21.60;72.60;;;;;;5022098;28;1147;-71
2021/06/29 05:15:04;;;;;;;;;;;21.60;72.50;;;;;;5031747;28;1298;-70
2021/06/29 05:17:29;;;;;;;;;;;21.60;72.50;;;;;;5031909;28;1375;-68
2021/06/29 05:19:55;;;;;;;;;;;21.60;72.50;;;;;;5032694;28;1171;-69
2021/06/29 05:22:20;;;;;;;;;;;21.60;72.50;;;;;;5031759;28;1144;-69
2021/06/29 05:24:46;;;;;;;;;;;21.60;72.50;;;;;;5030999;28;1163;-69
2021/06/29 05:27:11;;;;;;;;;;;21.60;72.50;;;;;;5031888;28;1913;-69
2021/06/29 05:29:36;;;;;;;;;;;21.60;72.50;;;;;;5030628;28;1139;-70
2021/06/29 05:32:02;;;;;;;;;;;21.60;72.50;;;;;;5012366;28;1132;-69
2021/06/29 05:34:28;;;;;;;;;;;21.60;72.50;;;;;;5011958;28;965;-69
2021/06/29 05:36:53;;;;;;;;;;;21.60;72.50;;;;;;5012226;28;1219;-69
2021/06/29 05:39:18;;;;;;;;;;;21.60;72.50;;;;;;5015228;28;1113;-70
2021/06/29 05:41:44;;;;;;;;;;;21.60;72.50;;;;;;5012739;28;1093;-73
2021/06/29 05:44:10;;;;;;;;;;;21.60;72.50;;;;;;5012168;28;1061;-72
2021/06/29 05:46:35;;;;;;;;;;;21.60;72.50;;;;;;4995786;28;1894;-72
2021/06/29 05:49:03;;;;;;;;;;;21.60;72.60;;;;;;4995296;28;1281;-72
2021/06/29 05:51:28;;;;;;;;;;;21.60;72.60;;;;;;5013274;28;1100;-72
2021/06/29 05:53:54;;;;;;;;;;;21.60;72.60;;;;;;5011100;28;1061;-72
2021/06/29 05:56:19;;;;;;;;;;;21.60;72.60;;;;;;5013358;28;1053;-72
2021/06/29 05:58:45;;;;;;;;;;;21.60;72.60;;;;;;4995275;28;1181;-72
2021/06/29 06:01:10;;;;;;;;;;;21.60;72.60;;;;;;5013093;28;1093;-72
2021/06/29 06:03:35;;;;;;;;;;;21.60;72.50;;;;;;5012347;28;1089;-72
2021/06/29 06:06:01;;;;;;;;;;;21.60;72.50;;;;;;4994416;28;1894;-73
2021/06/29 06:08:26;;;;;;;;;;;21.60;72.50;;;;;;5012001;28;1200;-73
2021/06/29 06:10:53;;;;;;;;;;;21.60;72.50;;;;;;4995004;28;1184;-69
2021/06/29 06:13:19;;;;;;;;;;;21.60;72.60;;;;;;5009271;28;1187;-73
2021/06/29 06:15:44;;;;;;;;;;;21.60;72.60;;;;;;5007752;28;2195;-73
2021/06/29 06:18:10;;;;;;;;;;;21.60;72.60;;;;;;5017224;28;1203;-72
2021/06/29 06:20:35;;;;;;;;;;;21.60;72.60;;;;;;5024073;28;1009;-72
2021/06/29 06:23:01;;;;;;;;;;;21.60;72.60;;;;;;5026780;28;1119;-72
2021/06/29 06:25:26;;;;;;;;;;;21.60;72.60;;;;;;5019825;28;1124;-72
2021/06/29 06:27:51;;;;;;;;;;;21.60;72.60;;;;;;5012489;28;1906;-73
2021/06/29 06:30:18;;;;;;;;;;;21.60;72.60;;;;;;5025408;28;1077;-73
2021/06/29 06:32:44;;;;;;;;;;;21.60;72.60;;;;;;5019990;28;1234;-73
2021/06/29 06:35:09;;;;;;;;;;;21.60;72.60;;;;;;5012224;28;1144;-72
2021/06/29 06:37:35;;;;;;;;;;;21.60;72.60;;;;;;5011599;28;1271;-73
2021/06/29 06:40:00;;;;;;;;;;;21.60;72.60;;;;;;5015718;28;1219;-73
2021/06/29 06:42:26;;;;;;;;;;;21.60;72.60;;;;;;5012401;28;1175;-73
2021/06/29 06:44:51;;;;;;;;;;;21.60;72.60;;;;;;5011507;28;1061;-73
2021/06/29 06:47:17;;;;;;;;;;;21.60;72.60;;;;;;5012138;28;1956;-72
2021/06/29 06:49:42;;;;;;;;;;;21.60;72.60;;;;;;5012544;28;1148;-73
2021/06/29 06:52:07;;;;;;;;;;;21.60;72.60;;;;;;5012491;28;1124;-73
2021/06/29 06:54:33;;;;;;;;;;;21.60;72.60;;;;;;5012050;28;1152;-71
2021/06/29 06:56:58;;;;;;;;;;;21.60;72.60;;;;;;5012256;28;1346;-72
2021/06/29 06:59:24;;;;;;;;;;;21.60;72.60;;;;;;5011876;28;1097;-71
2021/06/29 07:01:49;;;;;;;;;;;21.60;72.60;;;;;;5012237;28;1124;-71
2021/06/29 07:04:16;;;;;;;;;;;21.60;72.60;;;;;;4993624;28;1053;-72
2021/06/29 07:06:41;;;;;;;;;;;21.60;72.60;;;;;;5011556;28;1940;-71
2021/06/29 07:09:07;;;;;;;;;;;21.60;72.60;;;;;;4994034;28;1308;-71
2021/06/29 07:11:32;;;;;;;;;;;21.60;72.70;;;;;;5012225;28;1215;-71
2021/06/29 07:13:58;;;;;;;;;;;21.60;72.70;;;;;;5012911;28;1124;-72
2021/06/29 07:16:23;;;;;;;;;;;21.60;72.60;;;;;;5031885;28;1092;-71
2021/06/29 07:18:48;;;;;;;;;;;21.60;72.60;;;;;;5031801;28;1200;-71
2021/06/29 07:21:14;;;;;;;;;;;21.60;72.70;;;;;;5035322;28;1009;-71
2021/06/29 07:23:39;;;;;;;;;;;21.60;72.70;;;;;;5034970;28;1303;-72
2021/06/29 07:26:05;;;;;;;;;;;21.60;72.60;;;;;;5035568;28;1910;-72
2021/06/29 07:28:30;;;;;;;;;;;21.60;72.70;;;;;;5035798;28;1275;-72
2021/06/29 07:30:56;;;;;;;;;;;21.60;72.70;;;;;;5022548;28;1115;-72
2021/06/29 07:33:21;;;;;;;;;;;21.60;72.60;;;;;;5014933;28;1204;-72
2021/06/29 07:35:47;;;;;;;;;;;21.60;72.70;;;;;;5014936;28;1077;-72
2021/06/29 07:38:12;;;;;;;;;;;21.60;72.70;;;;;;5017240;28;1267;-72
2021/06/29 07:40:38;;;;;;;;;;;21.60;72.70;;;;;;5004663;28;1140;-72
2021/06/29 07:43:03;;;;;;;;;;;21.60;72.70;;;;;;5014771;28;1203;-73
2021/06/29 07:45:29;;;;;;;;;;;21.60;72.60;;;;;;5014889;28;1093;-73
2021/06/29 07:47:56;;;;;;;;;;;21.60;73.40;;;;;;5014662;28;1902;-73
2021/06/29 07:50:22;;;;;;;;;;;21.60;72.70;;;;;;5015156;28;1104;-73
2021/06/29 07:52:47;;;;;;;;;;;21.60;72.70;;;;;;5014492;28;1179;-73
2021/06/29 07:55:13;;;;;;;;;;;21.60;72.70;;;;;;5014770;28;1443;-73
2021/06/29 07:57:38;;;;;;;;;;;21.60;72.70;;;;;;5014675;28;1194;-73
2021/06/29 08:00:05;;;;;;;;;;;21.60;72.70;;;;;;5015044;28;1065;-73
2021/06/29 08:02:31;;;;;;;;;;;21.60;72.70;;;;;;5014935;28;1085;-73
2021/06/29 08:04:56;;;;;;;;;;;21.60;72.70;;;;;;5014692;28;1168;-72
2021/06/29 08:07:22;;;;;;;;;;;21.60;72.70;;;;;;5014151;28;1972;-73
2021/06/29 08:09:47;;;;;;;;;;;21.60;72.70;;;;;;5014766;28;1076;-73
2021/06/29 08:12:13;;;;;;;;;;;21.60;72.70;;;;;;5020350;28;1258;-73
2021/06/29 08:14:38;;;;;;;;;;;21.60;72.70;;;;;;5033870;28;1147;-73
2021/06/29 08:17:04;;;;;;;;;;;21.60;72.70;;;;;;5008918;28;1538;-70
2021/06/29 08:19:29;;;;;;;;;;;21.60;72.70;;;;;;5017652;28;1072;-71
2021/06/29 08:21:55;;;;;;;;;;;21.60;72.70;;;;;;5013807;28;1081;-70
2021/06/29 08:24:20;;;;;;;;;;;21.60;72.70;;;;;;4994872;28;1081;-69
2021/06/29 08:26:46;;;;;;;;;;;21.60;72.60;;;;;;5013353;28;1910;-69
2021/06/29 08:29:11;;;;;;;;;;;21.60;72.60;;;;;;5021518;28;1096;-67
2021/06/29 08:31:38;;;;;;;;;;;21.60;72.60;;;;;;4997520;28;1097;-69
2021/06/29 08:34:03;;;;;;;;;;;21.60;72.50;;;;;;5011878;28;1065;-68
2021/06/29 08:36:30;;;;;;;;;;;21.60;72.30;;;;;;5013542;28;1081;-70
2021/06/29 08:38:56;;;;;;;;;;;21.60;72.40;;;;;;5014328;28;1312;-69
2021/06/29 08:41:21;;;;;;;;;;;21.60;72.50;;;;;;5014794;28;1108;-68
2021/06/29 08:43:47;;;;;;;;;;;21.60;72.40;;;;;;4995315;28;1167;-70
2021/06/29 08:46:12;;;;;;;;;;;21.60;72.40;;;;;;5012563;28;1902;-70
2021/06/29 08:48:38;;;;;;;;;;;21.60;72.30;;;;;;5013185;28;1294;-67
2021/06/29 08:51:05;;;;;;;;;;;21.60;72.30;;;;;;5013230;28;1085;-68
2021/06/29 08:53:31;;;;;;;;;;;21.60;72.30;;;;;;5012547;28;1085;-69
2021/06/29 08:55:58;;;;;;;;;;;21.60;72.20;;;;;;4995259;28;1144;-70
2021/06/29 08:58:23;;;;;;;;;;;21.60;72.20;;;;;;4995503;28;1327;-70
2021/06/29 09:00:49;;;;;;;;;;;21.60;72.30;;;;;;5013107;28;1136;-67
2021/06/29 09:03:15;;;;;;;;;;;21.60;72.20;;;;;;4994615;28;1117;-68
2021/06/29 09:05:44;;;;;;;;;;;21.60;72.20;;;;;;5012877;28;1080;-68
2021/06/29 09:08:10;;;;;;;;;;;21.60;72.30;;;;;;5012587;28;2017;-68
2021/06/29 09:10:36;;;;;;;;;;;21.60;72.30;;;;;;5013488;28;1096;-73
2021/06/29 09:13:02;;;;;;;;;;;21.60;72.40;;;;;;5025291;28;918;-73
2021/06/29 09:15:37;;;;;;;;;;;21.60;72.50;;;;;;4995943;28;1738;-70
2021/06/29 09:18:06;;;;;;;;;;;21.70;72.70;;;;;;5012729;28;1304;-70
2021/06/29 09:20:31;;;;;;;;;;;21.60;72.60;;;;;;5032485;28;1064;-70
2021/06/29 09:22:57;;;;;;;;;;;21.60;72.70;;;;;;5033306;28;1088;-69
2021/06/29 09:25:23;;;;;;;;;;;21.60;72.70;;;;;;5032983;28;1131;-69
2021/06/29 09:27:49;;;;;;;;;;;21.70;72.80;;;;;;5032309;28;1963;-72
2021/06/29 09:30:30;;;;;;;;;;;21.70;72.80;;;;;;5025609;28;1093;-73
2021/06/29 09:33:06;;;;;;;;;;;21.70;72.80;;;;;;5012947;28;1065;-72
2021/06/29 09:35:31;;;;;;;;;;;21.70;72.90;;;;;;5011982;28;850;-72
2021/06/29 09:37:57;;;;;;;;;;;21.70;72.80;;;;;;5017896;28;1272;-72
2021/06/29 09:40:24;;;;;;;;;;;21.70;72.80;;;;;;5009368;28;1241;-71
2021/06/29 09:42:50;;;;;;;;;;;21.70;72.80;;;;;;4991289;28;1435;-72
2021/06/29 09:45:34;;;;;;;;;;;21.60;72.70;;;;;;5019917;28;1157;-72
2021/06/29 09:48:02;;;;;;;;;;;21.70;72.70;;;;;;5018295;28;1903;-72
2021/06/29 09:50:33;;;;;;;;;;;21.60;72.50;;;;;;5003756;28;1209;-72
2021/06/29 09:53:09;;;;;;;;;;;21.70;72.60;;;;;;5020891;28;1146;-71
2021/06/29 09:55:38;;;;;;;;;;;21.70;72.60;;;;;;5004022;28;1315;-72
2021/06/29 09:58:08;;;;;;;;;;;21.70;72.60;;;;;;5002400;28;1541;-72
2021/06/29 10:00:40;;;;;;;;;;;21.70;72.60;;;;;;5020987;28;1546;-73
2021/06/29 10:03:15;;;;;;;;;;;21.70;72.50;;;;;;5003209;28;1545;-73
2021/06/29 10:05:41;;;;;;;;;;;21.70;72.50;;;;;;5019430;28;1449;-72
2021/06/29 10:08:07;;;;;;;;;;;21.70;72.50;;;;;;5015110;28;1878;-72
2021/06/29 10:10:32;;;;;;;;;;;21.70;72.50;;;;;;4998101;28;1704;-72
2021/06/29 10:13:14;;;;;;;;;;;21.70;72.40;;;;;;5020217;28;1341;-72
2021/06/29 10:15:39;;;;;;;;;;;21.70;72.40;;;;;;5013018;28;1594;-72
2021/06/29 10:18:05;;;;;;;;;;;21.60;72.40;;;;;;4995357;28;1585;-72
2021/06/29 10:20:47;;;;;;;;;;;21.70;72.40;;;;;;5012943;28;1105;-72
2021/06/29 10:23:13;;;;;;;;;;;21.70;72.40;;;;;;5008038;28;1251;-72
2021/06/29 10:25:39;;;;;;;;;;;21.70;72.50;;;;;;5012516;28;1069;-72
2021/06/29 10:28:04;;;;;;;;;;;21.70;72.40;;;;;;4994416;28;2045;-72
2021/06/29 10:30:30;;;;;;;;;;;21.70;72.70;;;;;;5022944;28;1176;-72
2021/06/29 10:32:55;;;;;;;;;;;21.70;73.00;;;;;;4998078;28;1261;-72
2021/06/29 10:35:20;;;;;;;;;;;21.70;73.20;;;;;;5005225;28;1209;-72
2021/06/29 10:37:46;;;;;;;;;;;21.70;73.20;;;;;;5031225;28;1279;-72
2021/06/29 10:40:12;;;;;;;;;;;21.70;73.30;;;;;;5023949;28;1187;-72
2021/06/29 10:42:41;;;;;;;;;;;21.70;73.30;;;;;;4994956;28;1085;-72
2021/06/29 10:45:13;;;;;;;;;;;21.70;73.20;;;;;;4995143;28;1069;-72
2021/06/29 10:47:39;;;;;;;;;;;21.70;73.10;;;;;;5011849;28;1895;-72
2021/06/29 10:50:10;;;;;;;;;;;21.70;73.00;;;;;;5012058;28;1042;-72
2021/06/29 10:52:37;;;;;;;;;;;21.70;73.20;;;;;;4994965;28;1188;-72
2021/06/29 10:55:18;;;;;;;;;;;21.70;73.20;;;;;;4997266;28;1078;-72
2021/06/29 10:57:47;;;;;;;;;;;21.70;73.20;;;;;;5016241;28;1334;-72
2021/06/29 11:00:15;;;;;;;;;;;21.70;73.80;;;;;;5016719;28;1085;-72
2021/06/29 11:02:40;;;;;;;;;;;21.70;73.80;;;;;;5015917;28;1137;-72
2021/06/29 11:05:06;;;;;;;;;;;21.70;73.80;;;;;;5015873;28;1077;-72
2021/06/29 11:07:32;;;;;;;;;;;21.80;74.00;;;;;;4997758;28;1956;-72
2021/06/29 11:09:58;;;;;;;;;;;21.70;73.90;;;;;;5015974;28;1082;-72
2021/06/29 11:12:33;;;;;;;;;;;21.80;74.00;;;;;;5023095;28;1072;-73
2021/06/29 11:14:59;;;;;;;;;;;21.80;74.20;;;;;;5035139;28;1112;-72
2021/06/29 11:17:45;;;;;;;;;;;21.80;74.00;;;;;;5035545;28;1275;-72
2021/06/29 11:20:12;;;;;;;;;;;21.80;74.30;;;;;;5035676;28;1111;-72
2021/06/29 11:22:51;;;;;;;;;;;21.80;74.10;;;;;;5018644;28;1124;-72
2021/06/29 11:25:35;;;;;;;;;;;21.80;74.10;;;;;;5017032;28;1093;-72
2021/06/29 11:28:08;;;;;;;;;;;21.90;74.20;;;;;;5035238;28;1914;-72
2021/06/29 11:30:52;;;;;;;;;;;21.80;74.50;;;;;;5025732;28;1152;-72
2021/06/29 11:33:33;;;;;;;;;;;21.80;74.40;;;;;;5014565;28;1100;-72
2021/06/29 11:35:58;;;;;;;;;;;21.90;74.40;;;;;;5016034;28;1077;-72
2021/06/29 11:38:31;;;;;;;;;;;21.80;74.50;;;;;;4998254;28;1204;-72
2021/06/29 11:40:56;;;;;;;;;;;21.80;74.50;;;;;;5001320;28;1106;-72
2021/06/29 11:43:22;;;;;;;;;;;21.80;74.40;;;;;;4985003;28;1924;-72
2021/06/29 11:45:47;;;;;;;;;;;21.80;74.20;;;;;;5008244;28;1222;-72
2021/06/29 11:48:31;;;;;;;;;;;21.80;74.10;;;;;;5014739;28;1895;-72
2021/06/29 11:50:56;;;;;;;;;;;21.90;74.40;;;;;;5015139;28;1057;-72
2021/06/29 11:53:23;;;;;;;;;;;21.90;74.60;;;;;;5014454;28;1248;-72
2021/06/29 11:55:48;;;;;;;;;;;21.80;74.50;;;;;;4997456;28;1152;-71
2021/06/29 11:58:13;;;;;;;;;;;21.80;74.40;;;;;;5015021;28;1310;-72
2021/06/29 12:00:39;;;;;;;;;;;21.80;74.50;;;;;;4997199;28;1093;-71
2021/06/29 12:03:05;;;;;;;;;;;21.90;75.10;;;;;;5014807;28;1057;-71
2021/06/29 12:05:35;;;;;;;;;;;21.90;75.60;;;;;;5013825;28;1033;-72
2021/06/29 12:08:02;;;;;;;;;;;21.90;74.50;;;;;;4997982;28;1902;-72
2021/06/29 12:10:32;;;;;;;;;;;21.90;74.40;;;;;;4997328;28;1144;-72
2021/06/29 12:13:00;;;;;;;;;;;21.90;74.20;;;;;;5008351;28;1080;-71
2021/06/29 12:15:26;;;;;;;;;;;21.90;74.10;;;;;;5033000;28;1772;-73
2021/06/29 12:17:53;;;;;;;;;;;21.90;74.10;;;;;;5023523;28;1337;-74
2021/06/29 12:20:19;;;;;;;;;;;21.90;74.30;;;;;;5018711;28;1893;-74
2021/06/29 12:22:45;;;;;;;;;;;21.90;74.30;;;;;;5031437;28;1698;-73
2021/06/29 12:25:15;;;;;;;;;;;21.90;74.20;;;;;;5001694;28;1408;-69
2021/06/29 12:27:44;;;;;;;;;;;21.90;74.30;;;;;;5017583;28;1906;-70
2021/06/29 12:30:18;;;;;;;;;;;21.90;74.10;;;;;;5005902;28;1797;-70
2021/06/29 12:32:44;;;;;;;;;;;21.90;74.50;;;;;;5032090;28;1039;-70
2021/06/29 12:35:10;;;;;;;;;;;21.90;74.10;;;;;;5011743;28;1171;-70
2021/06/29 12:37:54;;;;;;;;;;;21.90;74.20;;;;;;5025673;28;1297;-71
2021/06/29 12:40:19;;;;;;;;;;;21.90;74.30;;;;;;5023862;28;1136;-71
2021/06/29 12:42:45;;;;;;;;;;;21.90;74.30;;;;;;5013956;28;1109;-70
2021/06/29 12:45:11;;;;;;;;;;;21.90;74.20;;;;;;5025412;28;1051;-70
2021/06/29 12:47:36;;;;;;;;;;;21.90;74.10;;;;;;5028874;28;1883;-70
2021/06/29 12:50:02;;;;;;;;;;;21.90;73.80;;;;;;5013660;28;1081;-69
2021/06/29 12:52:27;;;;;;;;;;;21.90;73.80;;;;;;5013427;28;1140;-70
2021/06/29 12:54:52;;;;;;;;;;;21.90;73.70;;;;;;5019044;28;1014;-69
2021/06/29 12:57:18;;;;;;;;;;;21.90;73.60;;;;;;5010026;28;1450;-69
2021/06/29 12:59:44;;;;;;;;;;;21.90;73.40;;;;;;5013645;28;1131;-71
2021/06/29 13:02:10;;;;;;;;;;;21.90;73.20;;;;;;5013347;28;1123;-70
2021/06/29 13:04:51;;;;;;;;;;;21.90;73.10;;;;;;5012116;28;1085;-67
2021/06/29 13:07:18;;;;;;;;;;;21.90;73.00;;;;;;5012364;28;1902;-69
2021/06/29 13:09:44;;;;;;;;;;;22.00;73.00;;;;;;5012984;28;1139;-69
2021/06/29 13:12:10;;;;;;;;;;;21.90;72.80;;;;;;5013638;28;1315;-70
2021/06/29 13:14:36;;;;;;;;;;;21.90;72.80;;;;;;5002106;28;1093;-71
2021/06/29 13:17:09;;;;;;;;;;;21.90;72.80;;;;;;4992810;28;1522;-68
2021/06/29 13:19:35;;;;;;;;;;;21.90;73.00;;;;;;4995187;28;1184;-68
2021/06/29 13:22:02;;;;;;;;;;;21.90;73.20;;;;;;5012398;28;1108;-69
2021/06/29 13:24:36;;;;;;;;;;;21.90;73.40;;;;;;5012295;28;1089;-69
2021/06/29 13:27:03;;;;;;;;;;;21.90;73.40;;;;;;4994938;28;1969;-68
2021/06/29 13:29:32;;;;;;;;;;;21.90;73.80;;;;;;5022835;28;985;-67
2021/06/29 13:31:58;;;;;;;;;;;21.90;74.50;;;;;;5012791;28;1069;-68
2021/06/29 13:34:25;;;;;;;;;;;21.90;73.80;;;;;;5011883;28;1101;-67
2021/06/29 13:36:50;;;;;;;;;;;21.90;73.70;;;;;;4994668;28;1395;-68
2021/06/29 13:39:29;;;;;;;;;;;21.90;73.80;;;;;;4997071;28;1132;-69
2021/06/29 13:41:55;;;;;;;;;;;21.90;74.10;;;;;;4994593;28;1085;-71
2021/06/29 13:44:20;;;;;;;;;;;21.90;73.80;;;;;;5011859;28;1108;-69
2021/06/29 13:46:46;;;;;;;;;;;21.90;73.80;;;;;;4994491;28;1906;-68
2021/06/29 13:49:12;;;;;;;;;;;21.90;74.10;;;;;;5012344;28;1167;-68
2021/06/29 13:51:38;;;;;;;;;;;21.90;74.10;;;;;;5011653;28;1061;-71
2021/06/29 13:54:32;;;;;;;;;;;21.90;74.00;;;;;;5011435;28;1124;-70
2021/06/29 13:56:58;;;;;;;;;;;21.90;74.10;;;;;;4980211;28;1493;-71
2021/06/29 13:59:39;;;;;;;;;;;21.90;74.30;;;;;;5018452;28;1211;-71
2021/06/29 14:02:07;;;;;;;;;;;21.90;74.20;;;;;;5017279;28;1131;-72
2021/06/29 14:04:52;;;;;;;;;;;21.90;74.20;;;;;;5014641;28;1116;-70
2021/06/29 14:07:18;;;;;;;;;;;21.90;74.50;;;;;;5019508;28;1902;-70
2021/06/29 14:09:43;;;;;;;;;;;21.90;74.30;;;;;;5020825;28;1265;-69
2021/06/29 14:12:18;;;;;;;;;;;21.90;74.30;;;;;;4988968;28;1289;-71
2021/06/29 14:14:44;;;;;;;;;;;21.90;74.40;;;;;;5018973;28;1343;-71
2021/06/29 14:17:09;;;;;;;;;;;21.90;74.50;;;;;;5002577;28;1390;-71
2021/06/29 14:19:34;;;;;;;;;;;21.90;74.70;;;;;;5020020;28;1240;-70
2021/06/29 14:22:00;;;;;;;;;;;21.90;75.10;;;;;;5021785;28;1152;-70
2021/06/29 14:24:25;;;;;;;;;;;21.90;75.10;;;;;;5004251;28;1309;-72
2021/06/29 14:26:51;;;;;;;;;;;21.90;74.60;;;;;;5017417;28;1914;-72
2021/06/29 14:29:17;;;;;;;;;;;21.90;75.00;;;;;;5022867;28;1228;-70
2021/06/29 14:31:42;;;;;;;;;;;21.90;75.30;;;;;;5020371;28;1116;-70